Time;durP1;ratioP1;P1;durP2;ratioP2;P2;SDS_P1;SDS_P2;PMS_P1;PMS_P2;Temp;Humidity;BMP_temperature;BMP_pressure;BME280_temperature;BME280_humidity;BME280_pressure;Samples;Min_cycle;Max_cycle;Signal;HPM_P1;HPM_P2
2020/12/21 00:01:15;;;;;;;34.42;17.30;;;;;;;2.54;96.25;97548.16;5005979;28;20116;-67
2020/12/21 00:03:40;;;;;;;37.08;18.70;;;;;;;2.60;96.41;97538.88;5001728;28;20050;-66
2020/12/21 00:06:13;;;;;;;35.47;17.90;;;;;;;2.53;95.80;97533.03;4993878;28;20049;-71
2020/12/21 00:08:38;;;;;;;38.33;17.75;;;;;;;2.44;96.21;97535.59;4995550;28;20049;-66
2020/12/21 00:11:04;;;;;;;39.53;19.95;;;;;;;2.36;96.22;97534.38;4998552;28;20646;-71
2020/12/21 00:13:30;;;;;;;34.58;19.65;;;;;;;2.36;96.69;97534.38;5010835;28;20146;-66
2020/12/21 00:15:56;;;;;;;37.38;18.40;;;;;;;2.25;96.85;97530.19;5000660;28;20721;-66
2020/12/21 00:18:22;;;;;;;36.83;18.67;;;;;;;2.32;96.45;97527.13;4990481;28;20122;-70
2020/12/21 00:20:47;;;;;;;44.80;21.38;;;;;;;2.15;97.25;97533.03;5002530;28;20125;-68
2020/12/21 00:23:13;;;;;;;46.97;20.67;;;;;;;2.06;97.77;97533.69;4996769;28;20069;-67
2020/12/21 00:25:38;;;;;;;42.13;20.70;;;;;;;1.91;98.26;97534.69;4996519;28;20499;-68
2020/12/21 00:28:03;;;;;;;39.75;20.35;;;;;;;1.98;98.75;97541.63;4995249;28;20053;-72
2020/12/21 00:30:29;;;;;;;44.42;21.10;;;;;;;2.16;98.52;97550.84;5000492;28;20499;-68
2020/12/21 00:32:54;;;;;;;41.17;19.55;;;;;;;2.31;98.23;97544.44;5001159;28;20065;-68
2020/12/21 00:35:20;;;;;;;35.47;18.85;;;;;;;2.42;98.11;97535.09;4994499;28;20042;-68
2020/12/21 00:37:45;;;;;;;39.28;20.42;;;;;;;2.49;98.16;97543.63;5003418;28;20042;-72
2020/12/21 00:40:10;;;;;;;38.78;19.95;;;;;;;2.52;98.06;97548.47;5008828;28;20380;-67
2020/12/21 00:42:36;;;;;;;39.10;21.25;;;;;;;2.53;97.73;97544.66;5001286;28;20052;-68
2020/12/21 00:45:03;;;;;;;40.17;20.92;;;;;;;2.60;97.66;97545.09;4997871;28;20429;-71
2020/12/21 00:47:32;;;;;;;36.35;18.90;;;;;;;2.58;97.34;97547.28;4999793;28;20131;-67
2020/12/21 00:49:58;;;;;;;38.65;19.67;;;;;;;2.49;97.31;97536.31;5002053;28;20065;-67
2020/12/21 00:52:23;;;;;;;38.05;19.38;;;;;;;2.60;96.92;97539.69;4996457;28;20151;-68
2020/12/21 00:54:48;;;;;;;36.40;19.95;;;;;;;2.65;96.53;97539.59;5001747;28;20052;-68
2020/12/21 00:57:14;;;;;;;38.03;18.55;;;;;;;2.65;96.93;97542.31;4996335;28;20065;-66
2020/12/21 00:59:39;;;;;;;46.65;23.45;;;;;;;2.68;96.56;97535.50;5000712;28;20042;-65
2020/12/21 01:02:06;;;;;;;36.85;18.52;;;;;;;2.65;96.44;97538.81;4994741;28;20040;-70
2020/12/21 01:04:32;;;;;;;30.42;16.45;;;;;;;2.65;96.16;97541.50;5014454;28;20046;-66
2020/12/21 01:06:57;;;;;;;34.65;18.42;;;;;;;2.54;96.72;97545.44;4999703;28;20062;-66
2020/12/21 01:09:23;;;;;;;38.53;20.20;;;;;;;2.50;96.45;97561.44;4993767;28;20053;-67
2020/12/21 01:11:52;;;;;;;38.53;20.00;;;;;;;2.32;96.72;97554.94;4996412;28;20052;-67
2020/12/21 01:14:17;;;;;;;34.30;18.83;;;;;;;2.18;97.99;97563.00;4994991;28;20081;-67
2020/12/21 01:16:42;;;;;;;40.35;19.90;;;;;;;2.08;97.90;97563.91;5001266;28;20529;-67
2020/12/21 01:19:08;;;;;;;39.33;19.80;;;;;;;2.06;98.37;97551.81;5002594;28;20046;-66
2020/12/21 01:21:34;;;;;;;42.45;20.70;;;;;;;2.07;99.09;97553.38;5014990;28;20104;-70
2020/12/21 01:24:00;;;;;;;40.38;19.48;;;;;;;2.09;98.82;97552.03;5001227;28;20046;-68
2020/12/21 01:26:27;;;;;;;41.95;19.42;;;;;;;2.18;98.68;97572.97;4993452;28;20045;-66
2020/12/21 01:28:53;;;;;;;43.67;20.55;;;;;;;2.34;98.98;97558.19;4998508;28;20050;-67
2020/12/21 01:31:19;;;;;;;41.20;21.48;;;;;;;2.51;98.59;97568.47;4993973;28;20046;-65
2020/12/21 01:33:45;;;;;;;38.53;19.73;;;;;;;2.59;98.00;97565.13;4998409;28;20100;-65
2020/12/21 01:36:12;;;;;;;31.13;18.52;;;;;;;2.64;97.70;97566.94;4995446;28;20042;-66
2020/12/21 01:38:37;;;;;;;39.45;20.25;;;;;;;2.66;97.24;97567.44;4997911;28;20038;-66
2020/12/21 01:41:03;;;;;;;36.58;19.63;;;;;;;2.67;97.30;97569.06;4997615;28;20065;-72
2020/12/21 01:43:29;;;;;;;35.15;17.80;;;;;;;2.71;97.59;97564.66;4997793;28;20053;-67
2020/12/21 01:45:54;;;;;;;35.60;18.13;;;;;;;2.73;96.78;97573.28;5003343;28;20124;-68
2020/12/21 01:48:20;;;;;;;32.53;18.10;;;;;;;2.63;97.09;97566.16;5007998;28;20045;-69
2020/12/21 01:50:46;;;;;;;34.50;17.85;;;;;;;2.66;96.94;97568.25;5002716;28;20498;-66
2020/12/21 01:53:11;;;;;;;33.92;17.23;;;;;;;2.73;97.28;97569.78;4996610;28;20081;-69
2020/12/21 01:55:42;;;;;;;31.45;17.33;;;;;;;2.81;97.09;97574.50;4998826;28;20135;-66
2020/12/21 01:58:08;;;;;;;36.28;18.20;;;;;;;2.76;96.61;97564.59;4985216;28;20042;-72
2020/12/21 02:00:34;;;;;;;33.70;18.58;;;;;;;2.83;96.50;97575.84;4998916;28;20057;-69
2020/12/21 02:02:59;;;;;;;30.55;17.20;;;;;;;2.86;96.59;97586.09;4993535;28;20058;-69
2020/12/21 02:05:25;;;;;;;34.63;18.33;;;;;;;2.86;96.25;97585.25;4994356;28;20042;-67
2020/12/21 02:07:51;;;;;;;31.13;16.63;;;;;;;2.85;95.65;97597.19;5000248;28;20052;-67
2020/12/21 02:10:17;;;;;;;29.95;15.40;;;;;;;2.87;96.18;97589.59;4995613;28;20447;-69
2020/12/21 02:12:43;;;;;;;31.67;17.90;;;;;;;2.75;95.56;97583.81;5002062;28;20379;-68
2020/12/21 02:15:08;;;;;;;35.30;19.50;;;;;;;2.39;97.40;97574.31;4993604;28;20046;-67
2020/12/21 02:17:34;;;;;;;38.80;19.70;;;;;;;2.09;98.53;97576.34;5000650;28;20441;-67
2020/12/21 02:19:59;;;;;;;42.63;21.85;;;;;;;1.99;99.50;97576.47;4997988;28;20046;-66
2020/12/21 02:22:24;;;;;;;50.70;23.52;;;;;;;1.91;100.00;97574.41;4991311;28;20049;-69
2020/12/21 02:24:50;;;;;;;45.20;20.63;;;;;;;1.96;100.00;97568.94;5000599;28;20049;-68
2020/12/21 02:27:15;;;;;;;52.60;23.33;;;;;;;1.91;100.00;97559.00;4998204;28;20129;-70
2020/12/21 02:29:41;;;;;;;56.60;25.15;;;;;;;1.88;100.00;97562.28;5028348;28;20053;-67
2020/12/21 02:32:06;;;;;;;52.90;23.85;;;;;;;1.85;100.00;97573.66;5002351;28;20061;-68
2020/12/21 02:34:32;;;;;;;55.60;24.75;;;;;;;1.83;100.00;97575.84;5006146;28;20057;-66
2020/12/21 02:36:57;;;;;;;57.80;25.67;;;;;;;1.84;100.00;97563.94;4995844;28;20422;-68
2020/12/21 02:39:23;;;;;;;53.38;24.40;;;;;;;1.88;100.00;97561.47;4992360;28;20057;-69
2020/12/21 02:41:50;;;;;;;52.65;22.55;;;;;;;1.95;100.00;97559.22;4999905;28;20393;-67
2020/12/21 02:44:15;;;;;;;50.72;24.50;;;;;;;2.05;100.00;97558.28;4992855;28;20038;-68
2020/12/21 02:46:45;;;;;;;49.35;24.15;;;;;;;2.16;100.00;97558.97;5000092;28;20073;-69
2020/12/21 02:49:11;;;;;;;47.08;23.20;;;;;;;2.21;100.00;97551.59;4994742;28;20034;-67
2020/12/21 02:51:37;;;;;;;47.30;22.63;;;;;;;2.24;100.00;97551.00;4997245;28;20046;-67
2020/12/21 02:54:03;;;;;;;47.80;21.55;;;;;;;2.26;100.00;97540.69;4994952;28;20053;-72
2020/12/21 02:56:29;;;;;;;38.75;20.02;;;;;;;2.19;100.00;97545.66;4985920;28;20042;-67
2020/12/21 02:58:55;;;;;;;40.92;20.70;;;;;;;2.17;100.00;97547.06;5001173;28;20049;-67
2020/12/21 03:01:20;;;;;;;37.25;18.08;;;;;;;2.16;100.00;97546.28;4997199;28;20072;-67
2020/12/21 03:03:46;;;;;;;40.80;21.50;;;;;;;2.07;100.00;97534.47;5002775;28;20086;-68
2020/12/21 03:06:11;;;;;;;50.92;23.48;;;;;;;1.87;100.00;97524.75;4997400;28;20054;-68
2020/12/21 03:08:37;;;;;;;55.05;23.75;;;;;;;1.79;100.00;97520.00;5003111;28;20053;-67
2020/12/21 03:11:03;;;;;;;52.55;25.65;;;;;;;1.79;100.00;97520.00;5000995;28;20041;-71
2020/12/21 03:13:29;;;;;;;48.08;22.52;;;;;;;1.81;100.00;97513.19;4984563;28;20060;-67
2020/12/21 03:15:55;;;;;;;49.58;24.17;;;;;;;1.89;100.00;97512.56;5003656;28;20038;-66
2020/12/21 03:18:20;;;;;;;46.08;22.25;;;;;;;1.87;100.00;97514.75;4994727;28;20134;-67
2020/12/21 03:20:45;;;;;;;45.42;21.88;;;;;;;1.94;100.00;97505.47;5005111;28;20042;-70
2020/12/21 03:23:11;;;;;;;46.35;21.75;;;;;;;1.95;100.00;97512.50;5009518;28;20180;-67
2020/12/21 03:25:36;;;;;;;42.92;20.33;;;;;;;2.07;100.00;97508.28;5016078;28;20550;-68
2020/12/21 03:28:02;;;;;;;42.15;22.55;;;;;;;2.28;100.00;97497.16;4998985;28;20060;-70
2020/12/21 03:30:28;;;;;;;42.55;20.05;;;;;;;2.34;100.00;97504.13;5007705;28;20049;-70
2020/12/21 03:32:54;;;;;;;41.90;20.63;;;;;;;2.24;100.00;97502.34;4997962;28;20105;-68
2020/12/21 03:35:19;;;;;;;40.25;20.35;;;;;;;2.06;100.00;97497.75;5001844;28;20049;-70
2020/12/21 03:37:45;;;;;;;39.97;18.80;;;;;;;1.98;100.00;97496.50;5021500;28;20045;-69
2020/12/21 03:40:10;;;;;;;39.97;19.50;;;;;;;1.93;100.00;97496.59;5016897;28;20550;-69
2020/12/21 03:42:36;;;;;;;43.30;20.70;;;;;;;1.87;100.00;97490.44;5022485;28;20099;-68
2020/12/21 03:45:03;;;;;;;42.15;19.73;;;;;;;1.90;100.00;97495.25;5022629;28;20044;-74
2020/12/21 03:47:29;;;;;;;41.45;20.05;;;;;;;1.98;100.00;97498.38;5013111;28;20045;-70
2020/12/21 03:49:55;;;;;;;42.20;20.98;;;;;;;2.08;100.00;97500.97;4998858;28;20544;-69
2020/12/21 03:52:20;;;;;;;40.90;20.88;;;;;;;2.08;100.00;97498.25;5001181;28;20046;-70
2020/12/21 03:54:47;;;;;;;39.03;19.33;;;;;;;1.95;100.00;97496.28;5001667;28;20049;-67
2020/12/21 03:57:12;;;;;;;37.88;18.95;;;;;;;1.84;100.00;97488.31;4997874;28;20093;-67
2020/12/21 03:59:38;;;;;;;39.75;19.85;;;;;;;1.77;100.00;97489.78;5001046;28;20065;-67
2020/12/21 04:02:04;;;;;;;40.92;19.75;;;;;;;1.77;100.00;97495.19;4999346;28;20085;-74
2020/12/21 04:04:29;;;;;;;41.28;19.85;;;;;;;1.79;100.00;97487.59;4983062;28;20141;-67
2020/12/21 04:06:55;;;;;;;38.97;19.27;;;;;;;1.84;100.00;97504.53;5000068;28;20046;-72
2020/12/21 04:09:20;;;;;;;37.70;19.73;;;;;;;1.99;100.00;97491.91;4993738;28;20057;-70
2020/12/21 04:11:46;;;;;;;33.33;17.20;;;;;;;2.10;100.00;97498.78;5001850;28;20503;-67
2020/12/21 04:14:12;;;;;;;33.13;17.20;;;;;;;2.24;100.00;97509.66;4994639;28;20403;-68
2020/12/21 04:16:38;;;;;;;33.88;17.75;;;;;;;2.24;100.00;97507.75;5002210;28;20091;-67
2020/12/21 04:19:04;;;;;;;33.30;17.05;;;;;;;1.99;99.89;97491.91;4996158;28;20454;-73
2020/12/21 04:21:29;;;;;;;34.67;18.70;;;;;;;1.80;100.00;97479.19;5001769;28;20037;-70
2020/12/21 04:23:55;;;;;;;38.78;19.55;;;;;;;1.71;100.00;97481.72;4997447;28;20042;-69
2020/12/21 04:26:21;;;;;;;37.85;20.30;;;;;;;1.68;100.00;97476.09;4999226;28;20124;-67
2020/12/21 04:28:46;;;;;;;41.17;21.17;;;;;;;1.61;100.00;97475.66;4996995;28;20203;-66
2020/12/21 04:31:12;;;;;;;42.40;20.73;;;;;;;1.57;100.00;97478.13;4996629;28;20373;-67
2020/12/21 04:33:38;;;;;;;43.03;22.05;;;;;;;1.54;100.00;97476.00;4999523;28;20058;-68
2020/12/21 04:36:10;;;;;;;43.65;21.42;;;;;;;1.50;100.00;97469.56;4996824;28;20377;-74
2020/12/21 04:38:39;;;;;;;46.00;21.20;;;;;;;1.43;100.00;97469.91;5001882;28;20053;-70
2020/12/21 04:41:05;;;;;;;40.97;20.75;;;;;;;1.38;100.00;97474.56;4995791;28;20129;-69
2020/12/21 04:43:32;;;;;;;43.72;21.77;;;;;;;1.34;100.00;97475.13;5001737;28;20138;-68
2020/12/21 04:46:01;;;;;;;44.63;21.38;;;;;;;1.37;100.00;97473.78;5002403;28;20532;-68
2020/12/21 04:48:29;;;;;;;47.28;21.38;;;;;;;1.41;100.00;97474.00;4993454;28;20120;-70
2020/12/21 04:50:55;;;;;;;44.05;20.20;;;;;;;1.42;100.00;97470.19;5000396;28;20038;-68
2020/12/21 04:53:22;;;;;;;45.83;22.20;;;;;;;1.40;100.00;97465.09;4977906;28;20046;-69
2020/12/21 04:55:48;;;;;;;41.65;20.92;;;;;;;1.33;100.00;97461.94;5003868;28;20053;-67
2020/12/21 04:58:13;;;;;;;42.08;21.52;;;;;;;1.29;100.00;97455.50;5014897;28;20042;-71
2020/12/21 05:00:39;;;;;;;41.22;19.70;;;;;;;1.31;100.00;97456.84;5017303;28;20053;-67
2020/12/21 05:03:06;;;;;;;40.65;18.80;;;;;;;1.41;100.00;97463.22;4998025;28;20033;-74
2020/12/21 05:05:36;;;;;;;36.90;19.42;;;;;;;1.52;100.00;97460.09;5001634;28;20042;-68
2020/12/21 05:08:14;;;;;;;39.47;20.02;;;;;;;1.56;100.00;97446.81;5000496;28;20494;-73
2020/12/21 05:11:04;;;;;;;39.28;18.52;;;;;;;1.62;100.00;97437.56;4999912;28;20046;-66
2020/12/21 05:13:32;;;;;;;34.10;17.98;;;;;;;1.65;100.00;97431.56;5000907;28;20089;-65
2020/12/21 05:15:58;;;;;;;35.20;18.08;;;;;;;1.65;100.00;97430.78;4999016;28;20129;-68
2020/12/21 05:18:26;;;;;;;33.38;17.25;;;;;;;1.59;100.00;97429.25;4996408;28;20798;-69
2020/12/21 05:21:00;;;;;;;30.95;16.77;;;;;;;1.67;100.00;97433.97;5001575;28;20045;-67
2020/12/21 05:23:26;;;;;;;32.10;15.27;;;;;;;1.70;100.00;97428.00;4990698;28;20042;-66
2020/12/21 05:26:06;;;;;;;28.02;14.90;;;;;;;1.60;100.00;97434.31;5032441;28;20133;-68
2020/12/21 05:28:34;;;;;;;32.25;15.77;;;;;;;1.39;100.00;97435.69;5007856;28;20046;-64
2020/12/21 05:31:05;;;;;;;26.35;15.13;;;;;;;1.29;100.00;97426.63;4999995;28;20042;-66
2020/12/21 05:33:31;;;;;;;28.00;16.40;;;;;;;1.38;100.00;97423.28;4999766;28;20775;-67
2020/12/21 05:36:09;;;;;;;27.33;14.25;;;;;;;1.40;100.00;97419.19;4983754;28;20060;-65
2020/12/21 05:38:35;;;;;;;26.15;14.82;;;;;;;1.30;100.00;97414.75;4999908;28;20450;-67
2020/12/21 05:41:10;;;;;;;40.95;16.02;;;;;;;1.29;100.00;97413.13;4998654;28;20045;-66
2020/12/21 05:43:36;;;;;;;67.45;15.18;;;;;;;1.18;100.00;97410.84;4995772;28;20038;-69
2020/12/21 05:46:07;;;;;;;62.85;15.35;;;;;;;0.78;99.52;97399.44;4998972;28;20046;-66
2020/12/21 05:48:34;;;;;;;64.60;14.90;;;;;;;0.63;99.53;97398.50;4994752;28;20053;-67
2020/12/21 05:51:01;;;;;;;27.33;15.55;;;;;;;0.75;100.00;97412.38;4999565;28;21514;-68
2020/12/21 05:53:33;;;;;;;24.13;14.35;;;;;;;0.90;100.00;97410.59;4992957;28;20046;-66
2020/12/21 05:56:00;;;;;;;28.02;14.60;;;;;;;0.95;99.47;97414.06;4999209;28;20061;-66
2020/12/21 05:58:32;;;;;;;24.73;14.40;;;;;;;0.96;99.33;97409.47;4989467;28;20049;-66
2020/12/21 06:01:17;;;;;;;24.83;14.43;;;;;;;0.98;99.47;97411.88;4999121;28;20116;-70
2020/12/21 06:04:00;;;;;;;24.52;15.07;;;;;;;0.95;98.35;97408.69;4996769;28;20645;-67
2020/12/21 06:06:27;;;;;;;26.88;14.98;;;;;;;0.92;98.06;97413.84;4995596;28;20061;-67
2020/12/21 06:09:00;;;;;;;20.35;12.60;;;;;;;0.92;98.00;97414.63;4990451;28;20042;-67
2020/12/21 06:11:31;;;;;;;22.63;12.95;;;;;;;0.95;97.38;97421.34;4984858;28;20134;-68
2020/12/21 06:14:19;;;;;;;21.00;13.65;;;;;;;0.95;97.72;97416.78;4998277;28;20046;-70
2020/12/21 06:16:46;;;;;;;24.92;14.02;;;;;;;0.89;97.56;97423.28;4995716;28;20049;-68
2020/12/21 06:19:14;;;;;;;20.73;13.15;;;;;;;0.95;97.16;97419.47;4996762;28;20503;-67
2020/12/21 06:21:53;;;;;;;21.58;12.93;;;;;;;1.09;97.49;97432.25;4999835;28;20046;-66
2020/12/21 06:24:21;;;;;;;23.15;13.40;;;;;;;1.07;97.27;97419.06;4992532;28;20390;-70
2020/12/21 06:26:47;;;;;;;22.75;12.43;;;;;;;0.88;96.23;97410.09;5014881;28;20057;-67
2020/12/21 06:29:21;;;;;;;21.35;13.02;;;;;;;0.68;96.59;97416.50;4996019;28;20046;-68
2020/12/21 06:31:49;;;;;;;22.38;13.55;;;;;;;0.72;97.41;97433.72;5002020;28;20576;-67
2020/12/21 06:34:17;;;;;;;23.50;13.05;;;;;;;0.64;97.70;97440.53;4996380;28;20499;-70
2020/12/21 06:36:46;;;;;;;23.55;14.55;;;;;;;0.72;97.16;97441.78;5002605;28;20046;-68
2020/12/21 06:39:25;;;;;;;23.13;14.10;;;;;;;0.70;97.23;97454.75;4995218;28;20390;-68
2020/12/21 06:42:13;;;;;;;21.08;13.35;;;;;;;0.74;96.64;97450.44;5002957;28;20104;-66
2020/12/21 06:44:40;;;;;;;20.58;12.95;;;;;;;0.62;96.91;97447.31;5005047;28;20128;-67
2020/12/21 06:47:07;;;;;;;24.42;14.07;;;;;;;0.67;96.82;97455.34;4994623;28;20033;-67
2020/12/21 06:49:34;;;;;;;22.42;13.18;;;;;;;0.30;97.00;97454.03;4998825;28;20053;-68
2020/12/21 06:51:59;;;;;;;22.33;13.27;;;;;;;0.26;97.14;97461.06;5005219;28;20042;-68
2020/12/21 06:54:25;;;;;;;19.13;12.77;;;;;;;0.25;97.01;97454.06;5010301;28;20046;-65
2020/12/21 06:56:51;;;;;;;20.30;13.32;;;;;;;0.15;97.60;97469.22;5014122;28;20045;-68
2020/12/21 06:59:22;;;;;;;23.30;13.18;;;;;;;0.06;97.67;97472.78;5006278;28;20038;-69
2020/12/21 07:01:51;;;;;;;19.80;12.55;;;;;;;0.15;97.46;97469.22;5014107;28;20206;-66
2020/12/21 07:04:22;;;;;;;18.75;12.18;;;;;;;0.27;97.41;97468.88;4998787;28;20125;-67
2020/12/21 07:06:49;;;;;;;22.83;14.25;;;;;;;0.23;97.35;97457.03;5003918;28;20045;-64
2020/12/21 07:09:21;;;;;;;41.88;15.27;;;;;;;-0.11;97.01;97460.50;4985787;28;20450;-67
2020/12/21 07:11:52;;;;;;;30.73;13.52;;;;;;;-0.41;98.75;97456.88;5000797;28;20099;-65
2020/12/21 07:14:20;;;;;;;47.33;16.73;;;;;;;-0.50;99.42;97457.75;4997646;28;20042;-65
2020/12/21 07:16:46;;;;;;;44.63;16.02;;;;;;;-0.47;99.91;97459.88;5003207;28;20042;-63
2020/12/21 07:19:11;;;;;;;27.55;15.07;;;;;;;-0.38;100.00;97452.81;4995038;28;20469;-65
2020/12/21 07:21:37;;;;;;;40.22;15.30;;;;;;;-0.28;100.00;97452.78;4995132;28;20046;-65
2020/12/21 07:24:06;;;;;;;41.72;16.30;;;;;;;-0.31;100.00;97453.34;4998162;28;20034;-72
2020/12/21 07:26:31;;;;;;;48.90;18.07;;;;;;;-0.55;100.00;97447.00;4998888;28;20429;-66
2020/12/21 07:28:57;;;;;;;73.68;22.75;;;;;;;-0.67;100.00;97439.25;4994853;28;20300;-66
2020/12/21 07:31:23;;;;;;;164.38;20.80;;;;;;;-0.72;100.00;97447.34;4992262;28;20978;-68
2020/12/21 07:33:53;;;;;;;66.18;22.83;;;;;;;-0.71;100.00;97441.69;5001271;28;20074;-70
2020/12/21 07:36:29;;;;;;;57.30;19.98;;;;;;;-0.66;100.00;97436.28;4988126;28;20491;-65
2020/12/21 07:39:05;;;;;;;48.00;21.08;;;;;;;-0.61;100.00;97435.47;5016548;28;20061;-66
2020/12/21 07:41:32;;;;;;;44.40;22.08;;;;;;;-0.51;100.00;97438.09;5001796;28;20493;-69
2020/12/21 07:44:04;;;;;;;37.45;19.80;;;;;;;-0.27;100.00;97437.44;5002307;28;20129;-65
2020/12/21 07:46:40;;;;;;;38.95;20.50;;;;;;;-0.13;100.00;97434.94;4999322;28;20053;-68
2020/12/21 07:49:07;;;;;;;46.35;22.52;;;;;;;0.01;100.00;97433.22;4995279;28;20115;-69
2020/12/21 07:51:33;;;;;;;38.42;20.25;;;;;;;0.11;100.00;97433.16;5000382;28;20042;-65
2020/12/21 07:54:00;;;;;;;39.28;20.35;;;;;;;0.14;100.00;97429.88;4998791;28;20125;-66
2020/12/21 07:56:26;;;;;;;45.58;23.38;;;;;;;0.04;100.00;97431.84;4995917;28;20050;-66
2020/12/21 07:58:51;;;;;;;43.08;21.45;;;;;;;0.06;100.00;97427.81;5001752;28;20045;-69
2020/12/21 08:01:23;;;;;;;35.65;18.17;;;;;;;0.10;100.00;97439.63;4995669;28;20049;-67
2020/12/21 08:03:53;;;;;;;35.08;17.80;;;;;;;0.14;100.00;97443.34;5000018;28;20096;-65
2020/12/21 08:06:23;;;;;;;35.22;17.70;;;;;;;0.31;100.00;97434.09;4997230;28;20041;-70
2020/12/21 08:08:49;;;;;;;35.92;19.23;;;;;;;0.32;100.00;97438.38;5002153;28;20507;-66
2020/12/21 08:11:17;;;;;;;38.45;19.92;;;;;;;0.38;100.00;97437.28;4996022;28;20095;-68
2020/12/21 08:13:47;;;;;;;36.83;18.83;;;;;;;0.38;100.00;97440.75;5002367;28;20041;-70
2020/12/21 08:16:13;;;;;;;34.33;18.25;;;;;;;0.32;100.00;97441.88;4996161;28;20034;-68
2020/12/21 08:18:38;;;;;;;36.85;18.77;;;;;;;0.51;100.00;97438.50;4999138;28;20075;-67
2020/12/21 08:21:04;;;;;;;72.47;26.65;;;;;;;0.86;100.00;97444.63;4994999;28;20057;-74
2020/12/21 08:23:31;;;;;;;35.60;18.30;;;;;;;1.13;100.00;97431.41;5000746;28;20056;-68
2020/12/21 08:25:58;;;;;;;32.83;17.45;;;;;;;1.30;100.00;97430.94;4991468;28;20050;-68
2020/12/21 08:28:32;;;;;;;35.60;17.90;;;;;;;1.57;100.00;97432.22;4995672;28;20920;-67
2020/12/21 08:31:12;;;;;;;46.47;21.27;;;;;;;1.80;98.37;97433.28;5000046;28;20042;-67
2020/12/21 08:33:41;;;;;;;29.40;16.88;;;;;;;1.99;97.37;97432.47;5003006;28;20072;-68
2020/12/21 08:36:18;;;;;;;36.60;16.80;;;;;;;2.08;96.10;97426.09;5001055;28;20114;-69
2020/12/21 08:38:44;;;;;;;30.15;16.33;;;;;;;2.12;95.58;97429.00;5022074;28;20045;-70
2020/12/21 08:41:10;;;;;;;29.00;16.25;;;;;;;2.22;95.11;97433.47;5002625;28;20422;-68
2020/12/21 08:43:35;;;;;;;30.77;15.38;;;;;;;2.41;94.67;97430.72;4999437;28;20038;-66
2020/12/21 08:46:05;;;;;;;23.67;13.52;;;;;;;2.51;93.99;97430.56;4999415;28;20050;-68
2020/12/21 08:48:30;;;;;;;;;;;;;;;2.66;93.45;97430.28;5001032;28;20046;-68
2020/12/21 08:50:56;;;;;;;33.58;15.32;;;;;;;2.77;92.69;97430.91;5000402;28;20255;-71
2020/12/21 08:53:21;;;;;;;22.73;13.50;;;;;;;2.63;92.62;97430.13;4994183;28;20170;-66
2020/12/21 08:55:46;;;;;;;28.83;14.82;;;;;;;2.79;92.43;97428.75;5000277;28;20045;-66
2020/12/21 08:58:12;;;;;;;34.63;18.10;;;;;;;3.03;91.69;97422.34;4996073;28;20046;-66
2020/12/21 09:00:37;;;;;;;27.98;14.80;;;;;;;2.83;91.30;97431.66;4999631;28;20061;-66
2020/12/21 09:03:02;;;;;;;23.95;14.80;;;;;;;2.51;93.89;97421.66;5000989;28;20181;-72
2020/12/21 09:05:28;;;;;;;27.52;16.02;;;;;;;2.43;94.32;97436.63;5005220;28;20558;-70
2020/12/21 09:07:53;;;;;;;30.30;15.25;;;;;;;2.47;94.54;97421.44;5010077;28;20057;-69
2020/12/21 09:10:19;;;;;;;31.70;17.38;;;;;;;2.58;94.60;97428.28;4997542;28;20046;-69
2020/12/21 09:12:44;;;;;;;29.65;15.70;;;;;;;2.73;95.16;97429.91;4997751;28;20379;-66
2020/12/21 09:15:10;;;;;;;31.20;16.67;;;;;;;2.83;94.42;97421.63;4993553;28;20103;-68
2020/12/21 09:17:37;;;;;;;23.27;14.52;;;;;;;2.96;94.30;97416.53;5000562;28;20088;-68
2020/12/21 09:20:03;;;;;;;25.17;14.13;;;;;;;2.99;93.78;97422.16;4996483;28;20132;-71
2020/12/21 09:22:28;;;;;;;23.35;13.05;;;;;;;3.10;94.14;97424.63;4997226;28;20513;-68
2020/12/21 09:24:54;;;;;;;23.27;13.13;;;;;;;3.28;94.18;97434.59;4998815;28;20132;-66
2020/12/21 09:27:20;;;;;;;21.50;12.02;;;;;;;3.40;92.57;97437.59;4994538;28;20053;-68
2020/12/21 09:29:45;;;;;;;16.80;11.43;;;;;;;3.52;91.28;97441.69;4999225;28;20050;-67
2020/12/21 09:32:11;;;;;;;18.73;11.25;;;;;;;3.49;90.10;97445.81;4995240;28;20073;-67
2020/12/21 09:34:36;;;;;;;18.08;11.15;;;;;;;3.63;90.03;97443.88;4999882;28;20041;-67
2020/12/21 09:37:02;;;;;;;19.40;11.27;;;;;;;3.56;89.50;97440.78;4997686;28;20038;-71
2020/12/21 09:39:28;;;;;;;18.00;10.70;;;;;;;3.58;89.79;97446.72;4997228;28;20046;-68
2020/12/21 09:41:54;;;;;;;24.52;12.27;;;;;;;3.59;89.70;97444.81;5000305;28;20041;-67
2020/12/21 09:44:20;;;;;;;17.30;10.98;;;;;;;3.39;90.55;97437.91;4992527;28;20041;-72
2020/12/21 09:46:46;;;;;;;18.77;11.45;;;;;;;3.36;90.92;97443.91;4993675;28;20121;-67
2020/12/21 09:49:11;;;;;;;17.25;11.02;;;;;;;3.42;91.31;97438.09;4992012;28;20038;-66
2020/12/21 09:51:36;;;;;;;16.75;10.40;;;;;;;3.53;91.37;97446.81;4999547;28;20041;-68
2020/12/21 09:54:02;;;;;;;15.23;9.68;;;;;;;3.64;90.89;97442.00;4998456;28;20041;-74
2020/12/21 09:56:27;;;;;;;17.33;10.52;;;;;;;3.75;90.30;97440.66;4997258;28;20042;-69
2020/12/21 09:58:53;;;;;;;18.73;10.40;;;;;;;3.86;90.25;97435.03;5000616;28;20046;-70
2020/12/21 10:01:18;;;;;;;14.85;9.80;;;;;;;3.96;89.89;97430.19;4993212;28;20091;-68
2020/12/21 10:03:46;;;;;;;15.68;10.10;;;;;;;3.80;89.59;97426.22;4997292;28;20128;-68
2020/12/21 10:06:12;;;;;;;19.67;12.05;;;;;;;3.50;91.36;97420.34;4992901;28;20046;-67
2020/12/21 10:08:39;;;;;;;18.45;11.98;;;;;;;3.17;91.67;97414.22;4985574;28;20046;-69
2020/12/21 10:11:04;;;;;;;20.08;11.88;;;;;;;3.17;92.53;97411.50;4994674;28;20042;-74
2020/12/21 10:13:30;;;;;;;23.23;14.95;;;;;;;3.31;91.46;97415.03;4992419;28;20530;-68
2020/12/21 10:15:56;;;;;;;27.15;17.95;;;;;;;3.42;91.60;97410.19;4999436;28;20046;-65
2020/12/21 10:18:21;;;;;;;24.85;16.10;;;;;;;3.65;91.47;97408.38;4993261;28;20246;-69
2020/12/21 10:20:47;;;;;;;21.10;13.88;;;;;;;3.85;90.81;97406.31;4999300;28;20080;-68
2020/12/21 10:23:14;;;;;;;20.88;12.23;;;;;;;4.01;90.28;97410.28;4992473;28;20625;-68
2020/12/21 10:25:40;;;;;;;21.52;13.32;;;;;;;4.15;89.57;97412.94;4998838;28;20042;-67
2020/12/21 10:28:05;;;;;;;24.63;14.13;;;;;;;4.29;89.23;97411.00;4994890;28;20049;-67
2020/12/21 10:30:31;;;;;;;22.70;13.05;;;;;;;4.38;88.95;97416.47;4999580;28;20517;-66
2020/12/21 10:32:56;;;;;;;16.90;11.32;;;;;;;4.47;88.70;97417.34;4999455;28;20038;-66
2020/12/21 10:35:21;;;;;;;19.63;11.68;;;;;;;4.51;88.61;97415.59;4993468;28;20535;-68
2020/12/21 10:37:47;;;;;;;18.50;11.57;;;;;;;4.58;88.19;97413.25;4999151;28;20053;-66
2020/12/21 10:40:12;;;;;;;21.88;12.45;;;;;;;4.61;88.56;97411.84;4992964;28;20474;-66
2020/12/21 10:42:37;;;;;;;22.25;11.60;;;;;;;4.25;88.03;97404.59;4995937;28;20056;-68
2020/12/21 10:45:03;;;;;;;19.20;12.48;;;;;;;4.19;89.47;97409.31;4994664;28;20418;-73
2020/12/21 10:47:30;;;;;;;18.77;12.50;;;;;;;4.43;88.87;97402.78;4997764;28;20041;-69
2020/12/21 10:49:56;;;;;;;22.13;12.45;;;;;;;4.21;88.92;97406.28;5000235;28;20539;-65
2020/12/21 10:52:21;;;;;;;19.23;12.40;;;;;;;4.16;89.88;97407.22;4989504;28;20046;-67
2020/12/21 10:54:46;;;;;;;18.83;11.93;;;;;;;4.27;89.66;97410.50;4996535;28;20271;-67
2020/12/21 10:57:12;;;;;;;18.73;11.40;;;;;;;4.31;89.00;97413.41;4993646;28;20113;-66
2020/12/21 10:59:37;;;;;;;17.65;11.38;;;;;;;4.39;89.58;97413.47;4999494;28;20054;-66
2020/12/21 11:02:03;;;;;;;21.10;11.82;;;;;;;4.65;88.97;97407.41;4998147;28;20126;-74
2020/12/21 11:04:28;;;;;;;18.60;12.00;;;;;;;4.77;88.03;97412.22;4996535;28;20053;-69
2020/12/21 11:06:55;;;;;;;19.75;11.75;;;;;;;4.46;88.71;97407.59;4997064;28;20054;-67
2020/12/21 11:09:20;;;;;;;21.20;13.02;;;;;;;4.59;89.20;97398.59;4995159;28;20061;-70
2020/12/21 11:11:46;;;;;;;22.38;13.65;;;;;;;4.77;89.01;97410.34;4998640;28;20085;-67
2020/12/21 11:14:12;;;;;;;22.48;12.50;;;;;;;4.80;88.35;97398.03;4999693;28;20063;-67
2020/12/21 11:16:37;;;;;;;21.20;12.20;;;;;;;4.85;88.11;97406.06;5008377;28;20053;-66
2020/12/21 11:19:07;;;;;;;20.75;12.98;;;;;;;4.94;88.28;97416.97;5008366;28;20046;-75
2020/12/21 11:21:36;;;;;;;29.60;13.73;;;;;;;4.86;88.10;97425.84;5004513;28;20439;-70